createdAt,value
2018-09-26T00:01:41.703Z,2.50
2018-09-26T00:04:14.420Z,2.40
2018-09-26T00:06:42.600Z,2.30
2018-09-26T00:09:12.401Z,2.63
2018-09-26T00:11:40.573Z,2.60
2018-09-26T00:14:09.147Z,2.33
2018-09-26T00:16:37.991Z,2.23
2018-09-26T00:19:06.157Z,2.00
2018-09-26T00:21:34.371Z,2.10
2018-09-26T00:24:02.560Z,2.10
2018-09-26T00:26:30.882Z,2.00
2018-09-26T00:28:59.039Z,2.10
2018-09-26T00:31:27.208Z,2.20
2018-09-26T00:33:55.379Z,2.20
2018-09-26T00:36:23.600Z,2.03
2018-09-26T00:38:51.824Z,2.50
2018-09-26T00:41:19.974Z,2.30
2018-09-26T00:43:48.466Z,2.10
2018-09-26T00:46:16.755Z,2.13
2018-09-26T00:48:44.916Z,2.17
2018-09-26T00:51:13.096Z,2.13
2018-09-26T00:53:41.871Z,2.33
2018-09-26T00:56:10.043Z,2.13
2018-09-26T00:58:38.195Z,2.03
2018-09-26T01:01:06.457Z,2.17
2018-09-26T01:03:34.619Z,2.37
2018-09-26T01:06:02.808Z,2.10
2018-09-26T01:08:30.967Z,2.80
2018-09-26T01:10:59.155Z,2.30
2018-09-26T01:13:27.347Z,2.27
2018-09-26T01:15:55.514Z,2.40
2018-09-26T01:18:23.663Z,2.37
2018-09-26T01:20:51.883Z,2.60
2018-09-26T01:23:20.081Z,2.40
2018-09-26T01:25:48.272Z,2.10
2018-09-26T01:28:16.448Z,2.23
2018-09-26T01:30:44.625Z,2.47
2018-09-26T01:33:12.819Z,2.40
2018-09-26T01:35:40.977Z,2.50
2018-09-26T01:38:09.137Z,2.07
2018-09-26T01:40:37.580Z,2.40
2018-09-26T01:43:05.754Z,2.10
2018-09-26T01:45:33.911Z,2.27
2018-09-26T01:48:02.428Z,2.40
2018-09-26T01:50:30.593Z,2.57
2018-09-26T01:52:58.758Z,2.33
2018-09-26T01:55:26.959Z,2.40
2018-09-26T01:57:55.175Z,2.07
2018-09-26T02:00:23.449Z,2.63
2018-09-26T02:02:51.623Z,2.33
2018-09-26T02:05:19.875Z,2.60
2018-09-26T02:07:48.041Z,2.47
2018-09-26T02:10:16.303Z,2.30
2018-09-26T02:12:44.521Z,2.20
2018-09-26T02:15:12.672Z,2.83
2018-09-26T02:17:40.844Z,2.30
2018-09-26T02:20:09.006Z,2.30
2018-09-26T02:22:37.151Z,2.20
2018-09-26T02:25:05.308Z,2.47
2018-09-26T02:27:33.461Z,2.90
2018-09-26T02:30:01.664Z,2.60
2018-09-26T02:32:29.959Z,2.50
2018-09-26T02:34:58.119Z,2.10
2018-09-26T02:37:26.294Z,2.67
2018-09-26T02:39:54.476Z,2.40
2018-09-26T02:42:22.633Z,2.33
2018-09-26T02:44:50.879Z,2.40
2018-09-26T02:47:19.051Z,2.30
2018-09-26T02:49:47.238Z,2.30
2018-09-26T02:52:15.420Z,2.60
2018-09-26T02:54:43.618Z,2.77
2018-09-26T02:57:11.789Z,2.13
2018-09-26T02:59:40.028Z,2.57
2018-09-26T03:02:08.214Z,2.37
2018-09-26T03:04:36.386Z,2.40
2018-09-26T03:07:04.667Z,2.50
2018-09-26T03:09:32.843Z,2.33
2018-09-26T03:12:01.031Z,2.40
2018-09-26T03:14:29.215Z,2.53
2018-09-26T03:16:57.390Z,2.20
2018-09-26T03:19:25.546Z,2.63
2018-09-26T03:21:53.807Z,2.63
2018-09-26T03:24:21.959Z,2.60
2018-09-26T03:26:50.132Z,2.30
2018-09-26T03:29:18.284Z,2.30
2018-09-26T03:31:46.453Z,2.57
2018-09-26T03:34:14.603Z,2.43
2018-09-26T03:36:42.774Z,2.60
2018-09-26T03:39:11.106Z,2.33
2018-09-26T03:41:39.285Z,2.20
2018-09-26T03:44:07.439Z,2.50
2018-09-26T03:46:35.701Z,2.50
2018-09-26T03:49:03.850Z,2.40
2018-09-26T03:51:32.015Z,2.43
2018-09-26T03:54:00.193Z,2.57
2018-09-26T03:56:28.371Z,2.53
2018-09-26T03:58:56.538Z,2.60
2018-09-26T04:01:24.864Z,2.40
2018-09-26T04:03:53.028Z,2.30
2018-09-26T04:06:21.191Z,2.50
2018-09-26T04:08:49.365Z,2.40
2018-09-26T04:11:17.548Z,2.50
2018-09-26T04:13:45.760Z,2.40
2018-09-26T04:16:13.919Z,2.13
2018-09-26T04:18:42.091Z,2.40
2018-09-26T04:21:10.244Z,2.53
2018-09-26T04:23:38.414Z,2.40
2018-09-26T04:26:06.807Z,2.20
2018-09-26T04:28:34.935Z,2.17
2018-09-26T04:31:03.115Z,2.30
2018-09-26T04:33:31.398Z,2.10
2018-09-26T04:36:00.457Z,2.43
2018-09-26T04:38:28.750Z,2.33
2018-09-26T04:40:57.248Z,2.60
2018-09-26T04:43:25.487Z,2.73
2018-09-26T04:45:53.711Z,2.80
2018-09-26T04:48:22.013Z,2.17
2018-09-26T04:50:50.252Z,2.50
2018-09-26T04:53:18.399Z,2.60
2018-09-26T04:55:46.592Z,2.20
2018-09-26T04:58:14.784Z,2.53
2018-09-26T05:00:42.906Z,2.50
2018-09-26T05:03:11.204Z,2.90
2018-09-26T05:05:39.373Z,2.70
2018-09-26T05:08:07.568Z,2.50
2018-09-26T05:10:35.864Z,2.40
2018-09-26T05:13:04.048Z,2.43
2018-09-26T05:15:32.215Z,2.50
2018-09-26T05:18:00.574Z,2.70
2018-09-26T05:20:28.762Z,2.60
2018-09-26T05:22:57.013Z,2.50
2018-09-26T05:25:25.191Z,2.90
2018-09-26T05:27:53.366Z,2.70
2018-09-26T05:30:21.564Z,2.33
2018-09-26T05:32:49.736Z,2.60
2018-09-26T05:35:18.152Z,2.70
2018-09-26T05:37:46.307Z,2.47
2018-09-26T05:40:14.777Z,2.77
2018-09-26T05:42:42.948Z,3.00
2018-09-26T05:45:11.240Z,3.00
2018-09-26T05:47:39.776Z,2.63
2018-09-26T05:50:07.969Z,3.17
2018-09-26T05:52:43.377Z,3.13
2018-09-26T05:55:26.511Z,3.33
2018-09-26T05:57:55.644Z,2.97
2018-09-26T06:00:23.813Z,3.27
2018-09-26T06:02:51.975Z,3.10
2018-09-26T06:05:20.378Z,3.27
2018-09-26T06:07:48.510Z,3.67
2018-09-26T06:10:17.013Z,3.90
2018-09-26T06:12:45.410Z,3.60
2018-09-26T06:15:13.663Z,4.00
2018-09-26T06:17:41.867Z,3.07
2018-09-26T06:20:10.037Z,3.50
2018-09-26T06:22:38.366Z,3.67
2018-09-26T06:25:06.831Z,3.30
2018-09-26T06:27:35.165Z,3.47
2018-09-26T06:30:03.326Z,3.70
2018-09-26T06:32:31.499Z,3.67
2018-09-26T06:34:59.731Z,3.50
2018-09-26T06:37:27.912Z,3.57
2018-09-26T06:39:56.184Z,3.90
2018-09-26T06:42:24.355Z,4.23
2018-09-26T06:44:52.519Z,4.20
2018-09-26T06:47:20.684Z,4.17
2018-09-26T06:49:48.824Z,4.00
2018-09-26T06:52:17.021Z,4.40
2018-09-26T06:54:45.331Z,3.87
2018-09-26T06:57:13.519Z,4.10
2018-09-26T06:59:41.680Z,4.13
2018-09-26T07:02:09.846Z,4.83
2018-09-26T07:04:38.016Z,4.50
2018-09-26T07:07:06.174Z,3.67
2018-09-26T07:09:34.346Z,3.87
2018-09-26T07:12:02.893Z,4.00
2018-09-26T07:14:31.202Z,4.07
2018-09-26T07:16:59.368Z,3.77
2018-09-26T07:19:27.575Z,4.20
2018-09-26T07:21:57.772Z,4.03
2018-09-26T07:24:32.218Z,4.27
2018-09-26T07:27:02.795Z,4.40
2018-09-26T07:29:30.967Z,3.83
2018-09-26T07:31:59.137Z,4.30
2018-09-26T07:34:32.680Z,4.43
2018-09-26T07:37:01.233Z,4.70
2018-09-26T07:39:29.461Z,5.17
2018-09-26T07:41:57.779Z,5.70
2018-09-26T07:44:25.981Z,5.50
2018-09-26T07:46:54.281Z,4.23
2018-09-26T07:49:22.639Z,4.13
2018-09-26T07:51:50.839Z,4.40
2018-09-26T07:54:19.363Z,4.10
2018-09-26T07:56:48.038Z,4.07
2018-09-26T07:59:16.503Z,3.83
2018-09-26T08:01:45.103Z,3.63
2018-09-26T08:04:13.315Z,3.57
2018-09-26T08:06:45.048Z,3.30
2018-09-26T08:09:15.468Z,3.63
2018-09-26T08:11:46.055Z,3.20
2018-09-26T08:14:15.417Z,3.37
2018-09-26T08:16:46.162Z,3.17
2018-09-26T08:19:15.660Z,3.20
2018-09-26T08:21:48.312Z,2.97
2018-09-26T08:24:16.591Z,3.33
2018-09-26T08:26:44.720Z,2.80
2018-09-26T08:29:12.931Z,2.80
2018-09-26T08:31:41.298Z,2.87
2018-09-26T08:34:09.548Z,2.93
2018-09-26T08:36:37.819Z,2.90
2018-09-26T08:39:09.134Z,2.87
2018-09-26T08:41:37.717Z,2.90
2018-09-26T08:44:05.964Z,2.60
2018-09-26T08:46:34.381Z,2.40
2018-09-26T08:49:02.540Z,2.53
2018-09-26T08:51:30.738Z,2.30
2018-09-26T08:53:58.944Z,3.10
2018-09-26T08:56:27.129Z,2.60
2018-09-26T08:58:57.493Z,2.73
2018-09-26T09:01:30.915Z,2.83
2018-09-26T09:03:59.190Z,2.63
2018-09-26T09:06:27.376Z,2.47
2018-09-26T09:08:55.578Z,2.60
2018-09-26T09:11:23.762Z,2.57
2018-09-26T09:13:51.958Z,2.43
2018-09-26T09:16:20.151Z,2.60
2018-09-26T09:18:48.319Z,2.73
2018-09-26T09:21:16.561Z,2.37
2018-09-26T09:23:44.732Z,2.70
2018-09-26T09:26:12.990Z,2.40
2018-09-26T09:28:41.133Z,2.70
2018-09-26T09:31:09.295Z,2.57
2018-09-26T09:33:37.795Z,2.53
2018-09-26T09:36:06.098Z,2.80
2018-09-26T09:38:34.247Z,2.70
2018-09-26T09:41:02.428Z,2.33
2018-09-26T09:43:32.260Z,2.80
2018-09-26T09:46:00.426Z,2.70
2018-09-26T09:48:28.616Z,3.13
2018-09-26T09:50:56.775Z,2.80
2018-09-26T09:53:25.880Z,2.70
2018-09-26T09:55:54.112Z,2.93
2018-09-26T09:58:22.684Z,2.60
2018-09-26T10:00:56.299Z,2.80
2018-09-26T10:03:24.454Z,2.80
2018-09-26T10:05:53.005Z,2.83
2018-09-26T10:08:21.355Z,2.67
2018-09-26T10:10:49.478Z,2.67
2018-09-26T10:13:17.632Z,2.60
2018-09-26T10:15:45.828Z,2.40
2018-09-26T10:18:14.307Z,2.90
2018-09-26T10:20:42.470Z,2.80
2018-09-26T10:23:11.030Z,2.60
2018-09-26T10:25:39.187Z,2.60
2018-09-26T10:28:07.415Z,2.50
2018-09-26T10:30:35.739Z,2.83
2018-09-26T10:33:09.379Z,2.40
2018-09-26T10:35:37.536Z,2.80
2018-09-26T10:38:05.736Z,2.70
2018-09-26T10:40:33.859Z,2.50
2018-09-26T10:43:02.024Z,2.60
2018-09-26T10:45:30.251Z,2.47
2018-09-26T10:47:58.464Z,3.10
2018-09-26T10:50:26.771Z,2.80
2018-09-26T10:52:54.826Z,2.80
2018-09-26T10:55:23.007Z,2.90
2018-09-26T10:57:51.168Z,3.07
2018-09-26T11:00:19.336Z,2.70
2018-09-26T11:02:47.510Z,2.80
2018-09-26T11:05:15.688Z,2.60
2018-09-26T11:07:43.839Z,2.77
2018-09-26T11:10:12.165Z,2.67
2018-09-26T11:12:40.432Z,2.53
2018-09-26T11:15:08.580Z,2.30
2018-09-26T11:17:36.732Z,2.35
2018-09-26T11:20:04.994Z,2.20
2018-09-26T11:22:33.158Z,2.50
2018-09-26T11:25:01.335Z,2.40
2018-09-26T11:27:29.503Z,2.60
2018-09-26T11:29:57.666Z,3.00
2018-09-26T11:32:25.954Z,2.58
2018-09-26T11:34:54.025Z,2.60
2018-09-26T11:37:22.196Z,2.85
2018-09-26T11:39:50.375Z,2.77
2018-09-26T11:42:18.558Z,2.37
2018-09-26T11:44:46.867Z,2.50
2018-09-26T11:47:14.967Z,2.62
2018-09-26T11:49:43.333Z,2.40
2018-09-26T11:52:11.532Z,2.60
2018-09-26T11:54:39.703Z,2.65
2018-09-26T11:57:08.075Z,3.05
2018-09-26T11:59:36.258Z,2.45
2018-09-26T12:02:04.528Z,2.30
2018-09-26T12:04:32.700Z,2.60
2018-09-26T12:07:01.126Z,2.25
2018-09-26T12:09:29.328Z,3.10
2018-09-26T12:11:57.564Z,3.02
2018-09-26T12:14:25.767Z,2.50
2018-09-26T12:16:54.012Z,2.35
2018-09-26T12:19:22.253Z,2.35
2018-09-26T12:21:50.401Z,2.15
2018-09-26T12:24:18.626Z,2.15
2018-09-26T12:26:46.776Z,2.37
2018-09-26T12:29:14.986Z,2.52
2018-09-26T12:31:43.171Z,2.33
2018-09-26T12:34:11.371Z,1.70
2018-09-26T12:36:39.599Z,2.10
2018-09-26T12:39:08.769Z,2.40
2018-09-26T12:41:37.080Z,2.10
2018-09-26T12:44:05.286Z,2.00
2018-09-26T12:46:33.658Z,2.17
2018-09-26T12:49:01.837Z,1.90
2018-09-26T12:51:30.060Z,1.80
2018-09-26T12:53:58.622Z,1.87
2018-09-26T12:56:26.988Z,1.90
2018-09-26T12:58:55.202Z,1.82
2018-09-26T13:01:23.563Z,1.55
2018-09-26T13:03:51.862Z,1.77
2018-09-26T13:06:20.056Z,1.70
2018-09-26T13:08:48.296Z,1.60
2018-09-26T13:11:16.470Z,2.17
2018-09-26T13:13:44.656Z,1.90
2018-09-26T13:16:12.881Z,1.80
2018-09-26T13:18:41.045Z,1.70
2018-09-26T13:21:09.226Z,1.62
2018-09-26T13:23:37.416Z,1.85
2018-09-26T13:26:05.624Z,1.87
2018-09-26T13:28:33.802Z,1.77
2018-09-26T13:31:01.977Z,1.82
2018-09-26T13:33:30.342Z,2.00
2018-09-26T13:35:58.779Z,1.77
2018-09-26T13:38:26.980Z,1.72
2018-09-26T13:40:55.176Z,1.77
2018-09-26T13:43:23.367Z,2.00
2018-09-26T13:45:51.645Z,1.92
2018-09-26T13:48:19.852Z,1.98
2018-09-26T13:50:48.014Z,1.90
2018-09-26T13:53:16.209Z,1.95
2018-09-26T13:55:44.638Z,2.00
2018-09-26T13:58:12.881Z,1.72
2018-09-26T14:00:41.021Z,1.80
2018-09-26T14:03:09.211Z,1.95
2018-09-26T14:05:37.448Z,1.90
2018-09-26T14:08:05.744Z,1.70
2018-09-26T14:10:34.075Z,1.70
2018-09-26T14:13:02.304Z,1.70
2018-09-26T14:15:30.493Z,1.50
2018-09-26T14:17:59.169Z,1.90
2018-09-26T14:20:44.411Z,2.27
2018-09-26T14:23:12.750Z,6.87
2018-09-26T14:25:41.259Z,1.62
2018-09-26T14:28:09.552Z,2.00
2018-09-26T14:30:38.276Z,1.77
2018-09-26T14:33:06.524Z,2.03
2018-09-26T14:35:34.779Z,1.72
2018-09-26T14:38:03.046Z,1.70
2018-09-26T14:40:31.287Z,1.80
2018-09-26T14:42:59.689Z,1.80
2018-09-26T14:45:28.002Z,1.57
2018-09-26T14:47:56.320Z,1.80
2018-09-26T14:50:25.231Z,1.97
2018-09-26T14:52:53.442Z,1.70
2018-09-26T14:55:21.781Z,1.80
2018-09-26T14:57:50.032Z,2.00
2018-09-26T15:00:18.465Z,1.67
2018-09-26T15:02:46.747Z,1.90
2018-09-26T15:05:14.996Z,2.10
2018-09-26T15:07:43.256Z,1.97
2018-09-26T15:10:11.599Z,1.77
2018-09-26T15:12:39.880Z,1.83
2018-09-26T15:15:08.139Z,1.80
2018-09-26T15:17:36.459Z,1.57
2018-09-26T15:20:05.245Z,1.60
2018-09-26T15:22:33.479Z,1.90
2018-09-26T15:25:01.723Z,1.93
2018-09-26T15:27:30.064Z,2.10
2018-09-26T15:29:58.604Z,1.63
2018-09-26T15:32:26.924Z,2.00
2018-09-26T15:34:55.190Z,1.70
2018-09-26T15:37:24.708Z,2.03
2018-09-26T15:39:53.024Z,1.80
2018-09-26T15:42:21.324Z,2.07
2018-09-26T15:44:49.918Z,3.20
2018-09-26T15:47:18.256Z,3.67
2018-09-26T15:49:46.547Z,3.00
2018-09-26T15:52:15.038Z,2.23
2018-09-26T15:54:43.399Z,2.20
2018-09-26T15:57:11.698Z,2.00
2018-09-26T15:59:39.983Z,2.17
2018-09-26T16:02:08.240Z,2.00
2018-09-26T16:04:36.374Z,1.73
2018-09-26T16:07:10.572Z,1.90
2018-09-26T16:09:38.817Z,2.00
2018-09-26T16:12:07.053Z,2.40
2018-09-26T16:14:35.178Z,1.77
2018-09-26T16:17:03.445Z,1.90
2018-09-26T16:19:31.684Z,1.93
2018-09-26T16:21:59.877Z,1.70
2018-09-26T16:24:28.061Z,2.00
2018-09-26T16:26:56.255Z,1.60
2018-09-26T16:29:24.406Z,1.90
2018-09-26T16:31:52.945Z,1.77
2018-09-26T16:34:21.344Z,2.30
2018-09-26T16:36:49.451Z,2.10
2018-09-26T16:39:17.750Z,3.00
2018-09-26T16:41:45.899Z,2.67
2018-09-26T16:44:14.505Z,2.43
2018-09-26T16:46:42.959Z,4.00
2018-09-26T16:49:11.302Z,3.20
2018-09-26T16:51:39.513Z,5.27
2018-09-26T16:54:08.626Z,4.10
2018-09-26T16:56:36.804Z,3.80
2018-09-26T16:59:05.132Z,2.77
2018-09-26T17:01:33.517Z,2.50
2018-09-26T17:04:03.849Z,2.30
2018-09-26T17:06:32.052Z,2.63
2018-09-26T17:09:00.965Z,2.50
2018-09-26T17:11:29.686Z,3.13
2018-09-26T17:13:57.947Z,2.70
2018-09-26T17:16:26.225Z,2.73
2018-09-26T17:18:55.351Z,2.60
2018-09-26T17:21:23.758Z,2.20
2018-09-26T17:23:52.800Z,5.03
2018-09-26T17:26:21.391Z,4.33
2018-09-26T17:28:49.719Z,2.57
2018-09-26T17:31:17.815Z,2.50
2018-09-26T17:33:45.995Z,2.30
2018-09-26T17:36:14.679Z,2.53
2018-09-26T17:38:43.125Z,2.00
2018-09-26T17:41:16.869Z,2.30
2018-09-26T17:43:45.523Z,2.50
2018-09-26T17:46:13.703Z,2.40
2018-09-26T17:48:42.095Z,2.90
2018-09-26T17:51:14.013Z,2.60
2018-09-26T17:53:54.000Z,2.97
2018-09-26T17:56:22.493Z,2.80
2018-09-26T17:58:50.735Z,3.30
2018-09-26T18:01:27.451Z,3.00
2018-09-26T18:03:55.919Z,2.83
2018-09-26T18:06:24.392Z,4.43
2018-09-26T18:08:53.013Z,4.70
2018-09-26T18:11:21.580Z,4.20
2018-09-26T18:13:49.791Z,3.13
2018-09-26T18:16:18.054Z,3.00
2018-09-26T18:21:42.608Z,4.03
2018-09-26T18:24:10.920Z,3.80
2018-09-26T18:26:39.143Z,3.10
2018-09-26T18:29:07.552Z,2.40
2018-09-26T18:31:35.744Z,2.47
2018-09-26T18:34:05.419Z,2.67
2018-09-26T18:36:33.621Z,2.50
2018-09-26T18:39:04.000Z,2.80
2018-09-26T18:41:32.182Z,3.07
2018-09-26T18:44:00.637Z,2.73
2018-09-26T18:46:28.832Z,3.03
2018-09-26T18:48:57.048Z,3.10
2018-09-26T18:51:25.284Z,3.03
2018-09-26T18:53:54.157Z,3.60
2018-09-26T18:56:22.647Z,3.10
2018-09-26T18:58:50.878Z,3.80
2018-09-26T19:01:19.038Z,3.30
2018-09-26T19:03:47.369Z,3.63
2018-09-26T19:06:15.634Z,3.30
2018-09-26T19:08:43.898Z,3.43
2018-09-26T19:11:12.106Z,3.53
2018-09-26T19:13:40.308Z,3.60
2018-09-26T19:16:08.487Z,3.37
2018-09-26T19:18:36.799Z,3.50
2018-09-26T19:21:05.074Z,3.80
2018-09-26T19:23:33.245Z,3.10
2018-09-26T19:26:01.441Z,3.40
2018-09-26T19:28:29.655Z,3.20
2018-09-26T19:30:58.097Z,3.00
2018-09-26T19:33:26.399Z,3.47
2018-09-26T19:35:54.767Z,3.50
2018-09-26T19:38:22.988Z,3.33
2018-09-26T19:40:51.236Z,3.40
2018-09-26T19:43:19.496Z,3.50
2018-09-26T19:45:47.729Z,3.87
2018-09-26T19:48:16.004Z,3.97
2018-09-26T19:50:44.163Z,3.50
2018-09-26T19:53:12.393Z,3.67
2018-09-26T19:55:40.907Z,4.10
2018-09-26T19:58:09.139Z,4.90
2018-09-26T20:00:37.304Z,3.83
2018-09-26T20:03:06.880Z,4.00
2018-09-26T20:05:35.147Z,3.47
2018-09-26T20:08:03.533Z,3.60
2018-09-26T20:10:32.487Z,3.87
2018-09-26T20:13:00.933Z,3.60
2018-09-26T20:15:30.149Z,3.57
2018-09-26T20:17:58.843Z,3.93
2018-09-26T20:20:27.424Z,3.77
2018-09-26T20:22:56.325Z,3.97
2018-09-26T20:25:26.461Z,3.90
2018-09-26T20:27:55.883Z,3.83
2018-09-26T20:30:26.603Z,3.90
2018-09-26T20:32:56.113Z,3.80
2018-09-26T20:35:25.359Z,3.70
2018-09-26T20:37:55.426Z,3.90
2018-09-26T20:40:28.675Z,4.10
2018-09-26T20:42:58.670Z,3.70
2018-09-26T20:45:27.063Z,4.07
2018-09-26T20:47:56.125Z,3.57
2018-09-26T20:50:24.593Z,3.70
2018-09-26T20:52:54.077Z,4.00
2018-09-26T20:55:22.359Z,3.90
2018-09-26T20:57:50.532Z,4.27
2018-09-26T21:00:19.009Z,4.50
2018-09-26T21:02:47.962Z,4.50
2018-09-26T21:05:16.560Z,4.20
2018-09-26T21:07:45.179Z,4.33
2018-09-26T21:10:13.970Z,3.50
2018-09-26T21:12:42.387Z,4.27
2018-09-26T21:15:11.516Z,3.80
2018-09-26T21:17:43.361Z,3.80
2018-09-26T21:20:11.542Z,3.80
2018-09-26T21:22:39.957Z,3.73
2018-09-26T21:25:08.222Z,4.10
2018-09-26T21:27:36.518Z,3.80
2018-09-26T21:30:04.924Z,3.53
2018-09-26T21:32:33.142Z,3.73
2018-09-26T21:35:01.325Z,3.63
2018-09-26T21:37:29.556Z,3.70
2018-09-26T21:39:57.775Z,4.10
2018-09-26T21:42:26.003Z,3.70
2018-09-26T21:44:54.222Z,4.20
2018-09-26T21:47:22.448Z,3.80
2018-09-26T21:49:50.669Z,4.23
2018-09-26T21:52:19.355Z,4.50
2018-09-26T21:54:47.993Z,4.30
2018-09-26T21:57:16.184Z,4.50
2018-09-26T21:59:44.411Z,4.60
2018-09-26T22:02:12.675Z,4.37
2018-09-26T22:04:40.867Z,4.03
2018-09-26T22:07:09.195Z,4.10
2018-09-26T22:09:37.442Z,4.60
2018-09-26T22:12:05.666Z,4.17
2018-09-26T22:14:33.875Z,4.43
2018-09-26T22:17:02.168Z,3.80
2018-09-26T22:19:30.479Z,3.77
2018-09-26T22:21:58.685Z,4.23
2018-09-26T22:24:26.925Z,3.90
2018-09-26T22:26:55.144Z,4.67
2018-09-26T22:29:23.343Z,4.40
2018-09-26T22:31:51.578Z,4.10
2018-09-26T22:34:19.793Z,4.70
2018-09-26T22:36:48.072Z,4.37
2018-09-26T22:39:16.280Z,4.00
2018-09-26T22:41:44.571Z,4.47
2018-09-26T22:44:12.792Z,4.20
2018-09-26T22:46:40.995Z,4.60
2018-09-26T22:49:09.294Z,4.10
2018-09-26T22:51:37.551Z,4.53
2018-09-26T22:54:05.760Z,4.30
